createdAt,value
2023-08-25T00:02:27.508Z,9.40
2023-08-25T00:04:54.977Z,7.97
2023-08-25T00:07:23.328Z,9.57
2023-08-25T00:09:50.996Z,7.50
2023-08-25T00:12:18.580Z,7.73
2023-08-25T00:14:46.148Z,7.50
2023-08-25T00:17:14.539Z,7.00
2023-08-25T00:19:42.119Z,11.00
2023-08-25T00:22:09.705Z,9.43
2023-08-25T00:24:37.361Z,9.87
2023-08-25T00:27:04.950Z,8.97
2023-08-25T00:29:32.506Z,9.43
2023-08-25T00:32:00.160Z,9.60
2023-08-25T00:34:27.727Z,10.03
2023-08-25T00:36:55.292Z,8.93
2023-08-25T00:39:24.477Z,8.70
2023-08-25T00:41:52.041Z,9.13
2023-08-25T00:44:19.625Z,7.70
2023-08-25T00:46:48.106Z,8.77
2023-08-25T00:49:15.656Z,8.30
2023-08-25T00:51:43.223Z,7.30
2023-08-25T00:54:11.606Z,8.45
2023-08-25T00:56:39.210Z,9.10
2023-08-25T00:59:06.766Z,7.73
2023-08-25T01:01:34.378Z,6.20
2023-08-25T01:04:02.732Z,7.17
2023-08-25T01:06:30.297Z,7.27
2023-08-25T01:08:57.929Z,8.93
2023-08-25T01:11:40.288Z,9.47
2023-08-25T01:14:14.355Z,8.93
2023-08-25T01:16:42.005Z,8.57
2023-08-25T01:19:10.293Z,7.97
2023-08-25T01:21:37.911Z,8.73
2023-08-25T01:24:14.379Z,8.27
2023-08-25T01:26:41.954Z,8.20
2023-08-25T01:29:09.607Z,9.17
2023-08-25T01:31:37.176Z,8.37
2023-08-25T01:34:04.755Z,9.00
2023-08-25T01:36:38.079Z,8.27
2023-08-25T01:39:11.107Z,11.00
2023-08-25T01:41:47.804Z,11.33
2023-08-25T01:44:15.399Z,14.00
2023-08-25T01:46:47.127Z,10.10
2023-08-25T01:49:14.332Z,11.87
2023-08-25T01:51:42.674Z,10.70
2023-08-25T01:54:10.304Z,9.83
2023-08-25T01:56:37.894Z,10.57
2023-08-25T01:59:05.515Z,10.40
2023-08-25T02:01:33.128Z,10.67
2023-08-25T02:04:00.725Z,9.07
2023-08-25T02:06:28.295Z,9.93
2023-08-25T02:08:55.925Z,10.83
2023-08-25T02:11:23.555Z,10.33
2023-08-25T02:13:51.104Z,10.77
2023-08-25T02:16:18.713Z,11.30
2023-08-25T02:18:47.102Z,11.23
2023-08-25T02:21:14.722Z,11.90
2023-08-25T02:23:42.259Z,12.10
2023-08-25T02:26:09.885Z,11.77
2023-08-25T02:28:37.475Z,14.52
2023-08-25T02:31:05.059Z,12.40
2023-08-25T02:33:32.682Z,14.90
2023-08-25T02:36:00.267Z,14.63
2023-08-25T02:38:27.907Z,12.60
2023-08-25T02:40:55.565Z,14.35
2023-08-25T02:43:23.143Z,11.93
2023-08-25T02:45:50.759Z,12.60
2023-08-25T02:48:18.350Z,13.20
2023-08-25T02:50:45.939Z,13.10
2023-08-25T02:53:13.521Z,9.90
2023-08-25T02:55:41.152Z,8.80
2023-08-25T02:58:08.725Z,8.57
2023-08-25T03:00:37.077Z,9.10
2023-08-25T03:03:04.763Z,8.60
2023-08-25T03:05:32.293Z,8.30
2023-08-25T03:07:59.838Z,7.90
2023-08-25T03:10:27.462Z,8.50
2023-08-25T03:12:55.673Z,8.37
2023-08-25T03:15:22.624Z,8.53
2023-08-25T03:17:50.345Z,9.60
2023-08-25T03:20:17.851Z,10.07
2023-08-25T03:22:45.434Z,11.10
2023-08-25T03:25:13.106Z,10.77
2023-08-25T03:27:40.679Z,13.40
2023-08-25T03:30:09.077Z,11.40
2023-08-25T03:32:36.749Z,10.90
2023-08-25T03:35:04.289Z,11.97
2023-08-25T03:37:32.626Z,13.77
2023-08-25T03:40:00.247Z,12.97
2023-08-25T03:42:27.830Z,11.80
2023-08-25T03:44:55.423Z,13.37
2023-08-25T03:47:23.062Z,14.47
2023-08-25T03:49:50.650Z,17.40
2023-08-25T03:52:18.230Z,14.87
2023-08-25T03:54:45.851Z,13.53
2023-08-25T03:57:13.449Z,12.83
2023-08-25T03:59:41.785Z,12.93
2023-08-25T04:02:09.414Z,11.30
2023-08-25T04:04:37.032Z,13.38
2023-08-25T04:07:04.591Z,11.27
2023-08-25T04:09:32.360Z,11.00
2023-08-25T04:11:59.916Z,10.90
2023-08-25T04:14:28.275Z,13.43
2023-08-25T04:16:56.030Z,12.50
2023-08-25T04:19:23.523Z,14.73
2023-08-25T04:21:51.897Z,14.43
2023-08-25T04:24:20.394Z,11.60
2023-08-25T04:26:48.621Z,11.27
2023-08-25T04:29:16.227Z,11.50
2023-08-25T04:31:44.639Z,14.20
2023-08-25T04:34:12.961Z,13.93
2023-08-25T04:36:41.302Z,15.27
2023-08-25T04:39:08.942Z,15.97
2023-08-25T04:41:36.519Z,16.53
2023-08-25T04:44:04.105Z,16.60
2023-08-25T04:46:31.773Z,16.80
2023-08-25T04:48:59.321Z,16.93
2023-08-25T04:51:26.892Z,17.47
2023-08-25T04:53:55.285Z,21.02
2023-08-25T04:56:23.664Z,16.93
2023-08-25T04:58:52.009Z,15.93
2023-08-25T05:01:19.687Z,16.13
2023-08-25T05:03:47.276Z,16.20
2023-08-25T05:06:14.841Z,15.93
2023-08-25T05:08:43.213Z,19.55
2023-08-25T05:11:10.806Z,15.67
2023-08-25T05:13:38.401Z,15.67
2023-08-25T05:16:06.099Z,15.13
2023-08-25T05:18:33.619Z,14.63
2023-08-25T05:21:01.179Z,15.83
2023-08-25T05:23:28.804Z,14.70
2023-08-25T05:25:56.392Z,14.40
2023-08-25T05:28:25.645Z,14.10
2023-08-25T05:30:52.497Z,15.37
2023-08-25T05:33:20.069Z,15.07
2023-08-25T05:35:47.618Z,16.85
2023-08-25T05:38:15.265Z,12.27
2023-08-25T05:40:42.859Z,13.17
2023-08-25T05:43:10.439Z,13.53
2023-08-25T05:45:38.066Z,13.43
2023-08-25T05:48:05.725Z,15.05
2023-08-25T05:50:33.306Z,13.47
2023-08-25T05:53:01.704Z,13.47
2023-08-25T05:55:29.279Z,12.67
2023-08-25T05:57:57.620Z,15.25
2023-08-25T06:00:25.252Z,11.97
2023-08-25T06:02:52.873Z,12.77
2023-08-25T06:05:20.422Z,11.17
2023-08-25T06:07:48.072Z,14.50
2023-08-25T06:10:15.644Z,13.63
2023-08-25T06:12:43.998Z,13.30
2023-08-25T06:15:11.720Z,12.93
2023-08-25T06:17:39.364Z,13.70
2023-08-25T06:20:07.144Z,12.97
2023-08-25T06:22:34.777Z,13.63
2023-08-25T06:25:03.161Z,13.37
2023-08-25T06:27:30.733Z,14.30
2023-08-25T06:29:59.112Z,13.63
2023-08-25T06:32:26.742Z,12.20
2023-08-25T06:34:54.310Z,13.23
2023-08-25T06:37:21.937Z,13.87
2023-08-25T06:39:49.529Z,15.30
2023-08-25T06:42:17.140Z,13.00
2023-08-25T06:44:44.809Z,12.60
2023-08-25T06:47:12.381Z,12.13
2023-08-25T06:49:39.983Z,11.90
2023-08-25T06:52:08.422Z,14.43
2023-08-25T06:54:36.090Z,12.43
2023-08-25T06:57:03.642Z,11.43
2023-08-25T06:59:31.334Z,12.77
2023-08-25T07:01:58.907Z,12.80
2023-08-25T07:04:27.287Z,11.90
2023-08-25T07:06:54.912Z,12.30
2023-08-25T07:09:22.488Z,14.77
2023-08-25T07:11:50.091Z,13.57
2023-08-25T07:14:20.645Z,13.50
2023-08-25T07:16:48.240Z,11.73
2023-08-25T07:19:15.813Z,12.45
2023-08-25T07:21:44.235Z,11.30
2023-08-25T07:24:11.864Z,11.30
2023-08-25T07:26:40.214Z,10.53
2023-08-25T07:29:07.857Z,12.77
2023-08-25T07:31:35.460Z,11.30
2023-08-25T07:34:03.032Z,11.10
2023-08-25T07:36:30.664Z,10.05
2023-08-25T07:38:59.018Z,9.40
2023-08-25T07:41:26.626Z,8.50
2023-08-25T07:43:55.792Z,8.07
2023-08-25T07:46:23.392Z,7.20
2023-08-25T07:48:51.762Z,7.53
2023-08-25T07:51:30.669Z,8.50
2023-08-25T07:53:47.031Z,7.00
2023-08-25T07:56:14.584Z,6.63
2023-08-25T07:58:42.210Z,6.50
2023-08-25T08:01:09.845Z,6.43
2023-08-25T08:03:37.419Z,5.57
2023-08-25T08:06:05.000Z,5.83
2023-08-25T08:08:32.575Z,5.90
2023-08-25T08:11:00.159Z,6.00
2023-08-25T08:13:27.792Z,5.30
2023-08-25T08:15:55.402Z,5.33
2023-08-25T08:18:23.748Z,6.43
2023-08-25T08:20:51.390Z,5.73
2023-08-25T08:23:18.977Z,5.57
2023-08-25T08:25:46.544Z,5.10
2023-08-25T08:28:14.182Z,6.10
2023-08-25T08:30:41.903Z,5.17
2023-08-25T08:33:09.378Z,5.23
2023-08-25T08:35:36.982Z,4.70
2023-08-25T08:38:04.550Z,4.80
2023-08-25T08:40:32.118Z,5.00
2023-08-25T08:43:06.012Z,5.43
2023-08-25T08:45:33.579Z,4.63
2023-08-25T08:48:07.373Z,4.80
2023-08-25T08:50:35.051Z,4.73
2023-08-25T08:53:02.609Z,4.73
2023-08-25T08:55:30.216Z,5.12
2023-08-25T08:57:58.566Z,4.70
2023-08-25T09:00:26.135Z,4.40
2023-08-25T09:02:53.724Z,4.10
2023-08-25T09:05:21.319Z,4.90
2023-08-25T09:07:48.900Z,4.37
2023-08-25T09:10:17.268Z,4.27
2023-08-25T09:12:44.892Z,4.30
2023-08-25T09:15:12.452Z,4.13
2023-08-25T09:17:40.093Z,4.77
2023-08-25T09:20:07.857Z,4.73
2023-08-25T09:22:35.445Z,4.50
2023-08-25T09:25:03.051Z,5.03
2023-08-25T09:27:31.431Z,4.43
2023-08-25T09:30:01.700Z,4.43
2023-08-25T09:32:29.444Z,4.57
2023-08-25T09:34:56.896Z,4.70
2023-08-25T09:37:24.472Z,4.97
2023-08-25T09:39:52.103Z,4.07
2023-08-25T09:42:19.679Z,4.53
2023-08-25T09:44:47.255Z,4.43
2023-08-25T09:47:14.871Z,4.10
2023-08-25T09:49:42.491Z,4.07
2023-08-25T09:52:10.087Z,4.33
2023-08-25T09:54:38.417Z,4.40
2023-08-25T09:57:06.041Z,4.83
2023-08-25T09:59:33.614Z,4.95
2023-08-25T10:02:01.258Z,4.10
2023-08-25T10:04:28.851Z,5.13
2023-08-25T10:06:56.407Z,4.37
2023-08-25T10:09:24.013Z,3.97
2023-08-25T10:11:51.646Z,4.17
2023-08-25T10:14:19.232Z,3.90
2023-08-25T10:16:52.861Z,3.73
2023-08-25T10:19:23.152Z,3.60
2023-08-25T10:21:50.718Z,3.73
2023-08-25T10:24:20.930Z,3.93
2023-08-25T10:26:48.551Z,4.73
2023-08-25T10:29:16.142Z,4.40
2023-08-25T10:31:49.987Z,3.90
2023-08-25T10:34:36.483Z,4.65
2023-08-25T10:37:04.059Z,4.43
2023-08-25T10:39:47.570Z,4.60
2023-08-25T10:42:15.910Z,4.70
2023-08-25T10:44:43.494Z,4.20
2023-08-25T10:47:11.118Z,5.07
2023-08-25T10:49:41.244Z,4.63
2023-08-25T10:52:17.913Z,4.17
2023-08-25T10:54:48.143Z,4.57
2023-08-25T10:57:21.853Z,4.87
2023-08-25T10:59:52.353Z,4.83
2023-08-25T11:02:38.276Z,5.13
2023-08-25T11:05:30.289Z,4.73
2023-08-25T11:07:57.849Z,4.47
2023-08-25T11:10:28.110Z,4.90
2023-08-25T11:13:09.607Z,4.47
2023-08-25T11:15:24.102Z,4.93
2023-08-25T11:17:52.063Z,4.83
2023-08-25T11:20:19.285Z,5.10
2023-08-25T11:23:13.210Z,5.07
2023-08-25T11:25:24.345Z,5.33
2023-08-25T11:27:52.013Z,5.33
2023-08-25T11:30:19.488Z,4.97
2023-08-25T11:32:49.818Z,5.00
2023-08-25T11:35:17.421Z,5.17
2023-08-25T11:37:48.767Z,5.03
2023-08-25T11:40:21.870Z,6.00
2023-08-25T11:42:50.216Z,5.30
2023-08-25T11:45:17.794Z,5.90
2023-08-25T11:47:46.288Z,6.40
2023-08-25T11:50:13.864Z,6.23
2023-08-25T11:52:41.439Z,6.03
2023-08-25T11:55:09.193Z,5.93
2023-08-25T11:57:36.762Z,6.30
2023-08-25T12:00:04.369Z,6.57
2023-08-25T12:02:32.007Z,6.07
2023-08-25T12:05:00.609Z,6.33
2023-08-25T12:07:27.144Z,6.73
2023-08-25T12:09:54.784Z,6.10
2023-08-25T12:12:22.361Z,7.40
2023-08-25T12:14:52.666Z,6.80
2023-08-25T12:17:23.066Z,6.17
2023-08-25T12:19:50.638Z,5.67
2023-08-25T12:22:18.219Z,6.33
2023-08-25T12:24:45.863Z,6.17
2023-08-25T12:27:13.460Z,6.53
2023-08-25T12:29:41.054Z,5.83
2023-08-25T12:32:09.430Z,6.53
2023-08-25T12:34:37.797Z,5.50
2023-08-25T12:37:05.350Z,6.10
2023-08-25T12:39:33.791Z,5.90
2023-08-25T12:42:01.371Z,6.20
2023-08-25T12:44:28.954Z,6.20
2023-08-25T12:46:57.358Z,5.70
2023-08-25T12:49:24.920Z,6.57
2023-08-25T12:51:53.198Z,6.13
2023-08-25T12:54:20.127Z,5.73
2023-08-25T12:56:47.718Z,5.77
2023-08-25T12:59:15.256Z,5.50
2023-08-25T13:01:42.887Z,6.00
2023-08-25T13:04:11.343Z,5.37
2023-08-25T13:06:38.858Z,6.40
2023-08-25T13:09:07.206Z,6.10
2023-08-25T13:11:35.558Z,5.70
2023-08-25T13:14:03.125Z,6.20
2023-08-25T13:16:30.796Z,5.40
2023-08-25T13:18:58.320Z,5.43
2023-08-25T13:21:25.914Z,6.30
2023-08-25T13:24:06.734Z,5.90
2023-08-25T13:26:21.114Z,5.67
2023-08-25T13:28:48.699Z,5.87
2023-08-25T13:31:17.131Z,6.22
2023-08-25T13:33:44.712Z,5.87
2023-08-25T13:36:12.293Z,5.50
2023-08-25T13:38:39.922Z,6.30
2023-08-25T13:41:07.492Z,5.70
2023-08-25T13:43:35.087Z,5.85
2023-08-25T13:46:03.664Z,6.20
2023-08-25T13:48:31.068Z,5.70
2023-08-25T13:50:58.634Z,5.40
2023-08-25T13:53:26.252Z,5.50
2023-08-25T13:55:53.832Z,6.18
2023-08-25T13:58:21.422Z,5.67
2023-08-25T14:00:49.817Z,5.53
2023-08-25T14:03:17.520Z,6.07
2023-08-25T14:05:44.986Z,5.90
2023-08-25T14:08:13.349Z,5.57
2023-08-25T14:10:41.699Z,5.37
2023-08-25T14:13:09.283Z,5.20
2023-08-25T14:15:37.787Z,5.37
2023-08-25T14:18:05.259Z,5.13
2023-08-25T14:20:32.827Z,5.87
2023-08-25T14:23:00.535Z,5.87
2023-08-25T14:25:28.130Z,5.20
2023-08-25T14:27:56.685Z,5.37
2023-08-25T14:30:24.070Z,5.33
2023-08-25T14:32:51.710Z,5.47
2023-08-25T14:35:19.259Z,6.30
2023-08-25T14:37:47.804Z,5.97
2023-08-25T14:40:15.331Z,6.28
2023-08-25T14:42:42.891Z,6.37
2023-08-25T14:45:10.596Z,5.87
2023-08-25T14:47:38.208Z,5.40
2023-08-25T14:50:06.570Z,7.13
2023-08-25T14:52:34.200Z,6.30
2023-08-25T14:55:01.854Z,6.77
2023-08-25T14:57:29.428Z,7.20
2023-08-25T14:59:57.833Z,7.20
2023-08-25T15:02:25.457Z,7.60
2023-08-25T15:04:54.799Z,7.20
2023-08-25T15:07:20.641Z,7.50
2023-08-25T15:09:48.228Z,7.07
2023-08-25T15:12:15.810Z,6.63
2023-08-25T15:14:44.209Z,7.25
2023-08-25T15:17:12.542Z,6.80
2023-08-25T15:19:40.114Z,6.47
2023-08-25T15:22:07.720Z,6.37
2023-08-25T15:24:35.398Z,6.60
2023-08-25T15:27:03.711Z,7.00
2023-08-25T15:29:42.451Z,6.73
2023-08-25T15:31:58.933Z,7.67
2023-08-25T15:34:26.506Z,7.40
2023-08-25T15:36:54.911Z,6.57
2023-08-25T15:39:22.512Z,6.83
2023-08-25T15:41:50.098Z,6.87
2023-08-25T15:44:18.512Z,7.55
2023-08-25T15:46:46.179Z,6.97
2023-08-25T15:49:13.681Z,7.80
2023-08-25T15:51:41.305Z,7.27
2023-08-25T15:54:08.893Z,7.83
2023-08-25T15:56:36.487Z,9.07
2023-08-25T15:59:04.860Z,8.00
2023-08-25T16:01:33.222Z,7.13
2023-08-25T16:04:00.834Z,8.75
2023-08-25T16:06:29.203Z,7.70
2023-08-25T16:08:56.802Z,8.87
2023-08-25T16:11:24.365Z,8.07
2023-08-25T16:13:52.013Z,9.07
2023-08-25T16:16:19.621Z,8.93
2023-08-25T16:18:47.175Z,9.57
2023-08-25T16:21:14.773Z,8.80
2023-08-25T16:23:42.368Z,9.30
2023-08-25T16:26:09.926Z,8.87
2023-08-25T16:28:37.564Z,9.00
2023-08-25T16:31:05.432Z,8.90
2023-08-25T16:33:32.735Z,7.40
2023-08-25T16:36:01.864Z,8.27
2023-08-25T16:38:29.440Z,8.73
2023-08-25T16:40:57.017Z,8.68
2023-08-25T16:43:24.663Z,8.50
2023-08-25T16:45:52.242Z,7.10
2023-08-25T16:48:19.815Z,8.03
2023-08-25T16:50:47.478Z,8.20
2023-08-25T16:53:15.024Z,8.48
2023-08-25T16:55:42.606Z,8.00
2023-08-25T16:58:10.273Z,8.20
2023-08-25T17:00:40.958Z,7.70
2023-08-25T17:03:09.367Z,7.73
2023-08-25T17:05:36.884Z,7.13
2023-08-25T17:08:05.721Z,7.63
2023-08-25T17:10:32.024Z,7.47
2023-08-25T17:12:59.654Z,7.20
2023-08-25T17:15:27.256Z,8.18
2023-08-25T17:17:54.872Z,7.43
2023-08-25T17:20:23.247Z,7.63
2023-08-25T17:22:50.829Z,8.10
2023-08-25T17:25:18.398Z,7.67
2023-08-25T17:27:46.034Z,7.90
2023-08-25T17:30:14.152Z,7.80
2023-08-25T17:32:41.327Z,6.70
2023-08-25T17:35:08.838Z,6.83
2023-08-25T17:37:36.432Z,7.20
2023-08-25T17:40:06.947Z,6.03
2023-08-25T17:42:34.570Z,6.60
2023-08-25T17:45:02.907Z,7.50
2023-08-25T17:47:30.479Z,7.77
2023-08-25T17:49:58.140Z,7.33
2023-08-25T17:52:25.730Z,7.27
2023-08-25T17:54:53.292Z,6.67
2023-08-25T17:57:20.965Z,6.67
2023-08-25T17:59:48.546Z,8.07
2023-08-25T18:02:16.228Z,7.70
2023-08-25T18:04:43.737Z,8.55
2023-08-25T18:07:11.335Z,7.70
2023-08-25T18:09:38.931Z,6.70
2023-08-25T18:12:07.386Z,8.48
2023-08-25T18:14:34.949Z,7.43
2023-08-25T18:17:03.298Z,8.50
2023-08-25T18:19:30.938Z,8.07
2023-08-25T18:21:58.507Z,7.73
2023-08-25T18:24:26.097Z,5.73
2023-08-25T18:26:53.722Z,6.60
2023-08-25T18:29:21.296Z,6.70
2023-08-25T18:31:48.919Z,6.60
2023-08-25T18:34:16.532Z,7.30
2023-08-25T18:36:46.651Z,7.10
2023-08-25T18:39:14.232Z,7.50
2023-08-25T18:41:42.607Z,6.80
2023-08-25T18:44:10.958Z,7.17
2023-08-25T18:46:38.530Z,6.70
2023-08-25T18:49:06.195Z,6.43
2023-08-25T18:51:33.733Z,7.75
2023-08-25T18:54:01.315Z,7.30
2023-08-25T18:56:28.935Z,7.30
2023-08-25T18:58:56.499Z,6.53
2023-08-25T19:01:24.091Z,6.10
2023-08-25T19:03:51.711Z,6.37
2023-08-25T19:06:19.271Z,6.87
2023-08-25T19:08:46.867Z,7.05
2023-08-25T19:11:14.493Z,6.20
2023-08-25T19:13:42.063Z,6.55
2023-08-25T19:16:09.717Z,5.77
2023-08-25T19:18:37.279Z,6.13
2023-08-25T19:21:04.867Z,5.80
2023-08-25T19:23:34.995Z,5.53
2023-08-25T19:26:02.630Z,6.33
2023-08-25T19:28:30.168Z,6.50
2023-08-25T19:30:57.768Z,6.45
2023-08-25T19:33:25.363Z,5.73
2023-08-25T19:35:55.910Z,5.80
2023-08-25T19:38:23.481Z,5.07
2023-08-25T19:40:51.110Z,5.20
2023-08-25T19:43:18.704Z,5.60
2023-08-25T19:45:46.321Z,5.57
2023-08-25T19:48:13.896Z,5.23
2023-08-25T19:50:41.467Z,6.40
2023-08-25T19:53:09.044Z,5.97
2023-08-25T19:55:42.878Z,5.80
2023-08-25T19:58:10.433Z,4.80
2023-08-25T20:00:38.083Z,5.53
2023-08-25T20:03:05.825Z,5.00
2023-08-25T20:05:33.312Z,5.83
2023-08-25T20:08:00.906Z,5.93
2023-08-25T20:10:29.348Z,5.60
2023-08-25T20:12:57.142Z,5.57
2023-08-25T20:15:24.445Z,5.23
2023-08-25T20:17:52.087Z,5.53
2023-08-25T20:20:20.411Z,6.03
2023-08-25T20:22:48.013Z,5.30
2023-08-25T20:25:15.671Z,6.45
2023-08-25T20:27:43.280Z,6.17
2023-08-25T20:30:10.822Z,5.73
2023-08-25T20:32:38.467Z,5.43
2023-08-25T20:35:06.831Z,5.30
2023-08-25T20:37:35.177Z,5.67
2023-08-25T20:40:02.783Z,5.07
2023-08-25T20:42:30.367Z,5.43
2023-08-25T20:44:57.964Z,5.73
2023-08-25T20:47:25.635Z,4.90
2023-08-25T20:49:53.163Z,6.15
2023-08-25T20:52:20.738Z,4.60
2023-08-25T20:54:48.361Z,5.23
2023-08-25T20:57:15.955Z,5.07
2023-08-25T20:59:43.519Z,4.80
2023-08-25T21:02:13.061Z,5.15
2023-08-25T21:04:38.743Z,4.30
2023-08-25T21:07:06.301Z,4.60
2023-08-25T21:09:33.945Z,4.63
2023-08-25T21:12:01.548Z,4.70
2023-08-25T21:14:29.125Z,4.90
2023-08-25T21:16:56.737Z,4.47
2023-08-25T21:19:24.317Z,4.50
2023-08-25T21:21:52.670Z,4.40
2023-08-25T21:24:20.288Z,4.13
2023-08-25T21:26:49.428Z,3.97
2023-08-25T21:29:15.434Z,4.07
2023-08-25T21:31:43.094Z,4.10
2023-08-25T21:34:10.629Z,4.43
2023-08-25T21:36:38.208Z,4.53
2023-08-25T21:39:05.809Z,4.17
2023-08-25T21:41:34.150Z,4.50
2023-08-25T21:44:01.732Z,4.70
2023-08-25T21:46:29.446Z,4.73
2023-08-25T21:48:56.951Z,4.30
2023-08-25T21:51:24.530Z,4.07
2023-08-25T21:53:52.945Z,4.03
2023-08-25T21:56:21.295Z,4.30
2023-08-25T21:58:48.832Z,3.70
2023-08-25T22:01:16.462Z,3.70
2023-08-25T22:03:44.153Z,3.93
2023-08-25T22:06:11.641Z,3.67
2023-08-25T22:08:40.072Z,4.37
2023-08-25T22:11:07.646Z,3.53
2023-08-25T22:13:35.219Z,3.90
2023-08-25T22:16:03.622Z,4.28
2023-08-25T22:18:31.950Z,3.80
2023-08-25T22:20:59.537Z,4.30
2023-08-25T22:23:27.748Z,4.18
2023-08-25T22:25:55.223Z,3.97
2023-08-25T22:28:22.804Z,3.53
2023-08-25T22:30:50.440Z,3.87
2023-08-25T22:35:47.472Z,4.00
2023-08-25T22:38:15.734Z,3.87
2023-08-25T22:40:43.321Z,4.07
2023-08-25T22:43:10.882Z,4.30
2023-08-25T22:45:38.540Z,4.80
2023-08-25T22:48:06.456Z,4.73
2023-08-25T22:50:34.000Z,4.20
2023-08-25T22:53:01.581Z,5.07
2023-08-25T22:55:29.169Z,4.80
2023-08-25T22:57:57.754Z,4.73
2023-08-25T23:00:25.204Z,4.50
2023-08-25T23:02:52.842Z,4.97
2023-08-25T23:05:20.340Z,5.10
2023-08-25T23:07:47.945Z,4.90
2023-08-25T23:10:15.504Z,5.13
2023-08-25T23:12:43.079Z,4.87
2023-08-25T23:15:10.724Z,5.45
2023-08-25T23:17:38.329Z,4.57
2023-08-25T23:20:06.159Z,5.18
2023-08-25T23:22:33.778Z,4.85
2023-08-25T23:25:01.457Z,4.72
2023-08-25T23:27:28.931Z,4.23
2023-08-25T23:29:56.548Z,3.77
2023-08-25T23:32:24.139Z,4.18
2023-08-25T23:34:51.772Z,4.20
2023-08-25T23:37:19.396Z,3.97
2023-08-25T23:39:46.972Z,3.83
2023-08-25T23:42:15.321Z,4.13
2023-08-25T23:44:42.937Z,4.30
2023-08-25T23:47:10.517Z,4.33
2023-08-25T23:49:38.099Z,4.90
2023-08-25T23:52:05.723Z,3.80
2023-08-25T23:54:33.338Z,4.55
2023-08-25T23:57:00.881Z,4.43
2023-08-25T23:59:28.503Z,4.33
